Time,TemperatureF,DewpointF,PressureIn,WindDirection,WindDirectionDegrees,WindSpeedMPH,WindSpeedGustMPH,Humidity,HourlyPrecipIn,Conditions,Clouds,dailyrainin,SoftwareType,DateUTC
2013-07-01 00:01:00,66.0,62.0,29.93,ENE,67,0.0,0.0,87,0.00,,,0.72,,2013-07-01 04:01:00,
2013-07-01 00:11:00,65.0,61.0,29.94,ENE,67,0.0,0.0,87,0.00,,,0.72,,2013-07-01 04:11:00,
2013-07-01 00:22:00,65.0,61.0,29.94,ENE,67,0.0,0.0,87,0.00,,,0.72,,2013-07-01 04:22:00,
2013-07-01 00:32:00,65.0,61.0,29.94,ENE,67,0.0,0.0,87,0.00,,,0.72,,2013-07-01 04:32:00,
2013-07-01 00:43:00,65.0,61.0,29.94,ENE,67,0.0,0.0,87,0.00,,,0.72,,2013-07-01 04:43:00,
2013-07-01 00:53:00,65.0,61.0,29.94,ENE,67,0.0,0.0,87,0.00,,,0.72,,2013-07-01 04:53:00,
2013-07-01 01:02:00,65.0,61.0,29.94,ENE,67,0.0,0.0,87,0.00,,,0.72,,2013-07-01 05:02:00,
2013-07-01 01:11:00,65.0,61.0,29.94,ENE,67,0.0,0.0,87,0.00,,,0.72,,2013-07-01 05:11:00,
2013-07-01 01:22:00,65.0,61.0,29.94,ENE,67,0.0,0.0,87,0.00,,,0.72,,2013-07-01 05:22:00,
2013-07-01 01:33:00,65.0,61.0,29.94,ENE,67,0.0,0.0,87,0.00,,,0.72,,2013-07-01 05:33:00,
2013-07-01 01:42:00,65.0,61.0,29.94,ENE,67,0.0,0.0,87,0.00,,,0.72,,2013-07-01 05:42:00,
2013-07-01 01:52:00,65.0,61.0,29.94,ENE,67,0.0,0.0,88,0.00,,,0.72,,2013-07-01 05:52:00,
2013-07-01 02:02:00,65.0,61.0,29.94,ENE,67,0.0,0.0,88,0.00,,,0.72,,2013-07-01 06:02:00,
2013-07-01 02:12:00,65.0,61.0,29.94,ENE,67,0.0,0.0,88,0.00,,,0.72,,2013-07-01 06:12:00,
2013-07-01 02:24:00,65.0,61.0,29.94,ENE,67,0.0,0.0,88,0.00,,,0.72,,2013-07-01 06:24:00,
2013-07-01 02:33:00,65.0,61.0,29.94,ENE,67,0.0,0.0,88,0.00,,,0.72,,2013-07-01 06:33:00,
2013-07-01 02:43:00,65.0,61.0,29.93,ENE,67,0.0,0.0,88,0.00,,,0.72,,2013-07-01 06:43:00,
2013-07-01 02:53:00,65.0,61.0,29.94,ENE,67,0.0,0.0,88,0.00,,,0.72,,2013-07-01 06:53:00,
2013-07-01 03:01:00,65.0,61.0,29.93,ENE,67,0.0,0.0,88,0.00,,,0.72,,2013-07-01 07:01:00,
2013-07-01 03:11:00,65.0,61.0,29.93,ENE,67,0.0,0.0,88,0.00,,,0.72,,2013-07-01 07:11:00,
2013-07-01 03:22:00,65.0,61.0,29.93,ENE,67,0.0,0.0,88,0.00,,,0.72,,2013-07-01 07:22:00,
2013-07-01 03:33:00,65.0,61.0,29.93,ENE,67,0.0,0.0,88,0.00,,,0.72,,2013-07-01 07:33:00,
2013-07-01 03:43:00,64.0,60.0,29.92,ENE,67,0.0,0.0,88,0.00,,,0.72,,2013-07-01 07:43:00,
2013-07-01 03:53:00,64.0,60.0,29.92,WSW,247,0.0,0.0,88,0.00,,,0.72,,2013-07-01 07:53:00,
2013-07-01 04:01:00,64.0,60.0,29.92,WSW,247,0.0,0.0,88,0.00,,,0.72,,2013-07-01 08:01:00,
2013-07-01 04:11:00,64.0,60.0,29.92,WSW,247,0.0,0.0,88,0.00,,,0.72,,2013-07-01 08:11:00,
2013-07-01 04:22:00,64.0,60.0,29.92,WSW,247,0.0,0.0,88,0.00,,,0.72,,2013-07-01 08:22:00,
2013-07-01 04:33:00,64.0,60.0,29.92,WSW,247,0.0,0.0,88,0.00,,,0.72,,2013-07-01 08:33:00,
2013-07-01 04:42:00,64.0,60.0,29.92,WSW,247,0.0,0.0,88,0.00,,,0.72,,2013-07-01 08:42:00,
2013-07-01 04:52:00,64.0,60.0,29.93,WSW,247,0.0,0.0,88,0.00,,,0.72,,2013-07-01 08:52:00,
2013-07-01 05:02:00,64.0,60.0,29.93,WSW,247,0.0,0.0,88,0.00,,,0.72,,2013-07-01 09:02:00,
2013-07-01 05:11:00,64.0,60.0,29.93,WSW,247,0.0,0.0,88,0.00,,,0.72,,2013-07-01 09:11:00,
2013-07-01 05:22:00,64.0,60.0,29.93,WSW,247,0.0,0.0,88,0.00,,,0.72,,2013-07-01 09:22:00,
2013-07-01 05:34:00,64.0,60.0,29.93,WSW,247,0.0,0.0,88,0.00,,,0.72,,2013-07-01 09:34:00,
2013-07-01 05:43:00,63.0,59.0,29.94,WSW,247,0.0,0.0,88,0.00,,,0.72,,2013-07-01 09:43:00,
2013-07-01 05:53:00,63.0,59.0,29.94,WSW,247,0.0,0.0,88,0.00,,,0.70,,2013-07-01 09:53:00,
2013-07-01 06:03:00,63.0,59.0,29.95,WSW,247,0.0,0.0,88,0.00,,,0.70,,2013-07-01 10:03:00,
2013-07-01 06:11:00,63.0,59.0,29.95,WSW,247,0.0,0.0,88,0.00,,,0.70,,2013-07-01 10:11:00,
2013-07-01 06:22:00,63.0,59.0,29.95,WSW,247,0.0,0.0,88,0.00,,,0.70,,2013-07-01 10:22:00,
2013-07-01 06:33:00,63.0,59.0,29.94,WSW,247,0.0,0.0,88,0.00,,,0.70,,2013-07-01 10:33:00,
2013-07-01 06:42:00,63.0,59.0,29.95,WSW,247,0.0,0.0,88,0.00,,,0.70,,2013-07-01 10:42:00,
2013-07-01 06:52:00,62.0,58.0,29.95,WSW,247,0.0,0.0,88,0.00,,,0.70,,2013-07-01 10:52:00,
2013-07-01 07:02:00,62.0,58.0,29.95,WSW,247,0.0,0.0,88,0.00,,,0.70,,2013-07-01 11:02:00,
2013-07-01 07:11:00,62.0,58.0,29.95,WSW,247,0.0,0.0,88,0.00,,,0.70,,2013-07-01 11:11:00,
2013-07-01 07:22:00,62.0,58.0,29.95,WSW,247,0.0,0.0,88,0.00,,,0.70,,2013-07-01 11:22:00,
2013-07-01 07:33:00,62.0,58.0,29.95,WSW,247,0.0,0.0,88,0.00,,,0.70,,2013-07-01 11:33:00,
2013-07-01 07:43:00,62.0,58.0,29.95,WSW,247,0.0,0.0,88,0.00,,,0.70,,2013-07-01 11:43:00,
2013-07-01 07:52:00,62.0,58.0,29.95,WSW,247,0.0,0.0,88,0.00,,,0.70,,2013-07-01 11:52:00,
2013-07-01 08:01:00,62.0,58.0,29.96,WSW,247,0.0,0.0,88,0.00,,,0.70,,2013-07-01 12:01:00,
2013-07-01 08:11:00,62.0,58.0,29.96,WSW,247,0.0,0.0,88,0.00,,,0.70,,2013-07-01 12:11:00,
2013-07-01 08:22:00,62.0,58.0,29.96,WSW,247,0.0,0.0,88,0.00,,,0.70,,2013-07-01 12:22:00,
2013-07-01 08:33:00,62.0,58.0,29.96,West,270,0.0,0.0,88,0.00,,,0.70,,2013-07-01 12:33:00,
2013-07-01 08:43:00,62.0,58.0,29.96,West,270,0.0,0.0,88,0.00,,,0.70,,2013-07-01 12:43:00,
2013-07-01 08:53:00,62.0,58.0,29.96,West,270,0.0,0.0,88,0.00,,,0.70,,2013-07-01 12:53:00,
2013-07-01 09:02:00,62.0,58.0,29.96,West,270,0.0,0.0,88,0.00,,,0.70,,2013-07-01 13:02:00,
2013-07-01 09:12:00,62.0,58.0,29.96,West,270,0.0,0.0,87,0.00,,,0.70,,2013-07-01 13:12:00,
2013-07-01 09:23:00,63.0,59.0,29.96,NW,315,0.0,0.0,86,0.00,,,0.70,,2013-07-01 13:23:00,
2013-07-01 09:33:00,63.0,59.0,29.97,NW,315,0.0,0.0,86,0.00,,,0.70,,2013-07-01 13:33:00,
2013-07-01 09:53:00,63.0,59.0,29.97,North,-999,-999.0,-999.0,86,0.00,,,0.70,,2013-07-01 13:53:00,
2013-07-01 10:01:00,63.0,59.0,29.97,WNW,292,0.0,0.0,86,0.00,,,0.59,,2013-07-01 14:01:00,
2013-07-01 10:11:00,63.0,58.0,29.97,WSW,247,0.0,0.0,85,0.00,,,0.57,,2013-07-01 14:11:00,
2013-07-01 10:22:00,64.0,59.0,29.97,WSW,247,0.0,0.0,85,0.00,,,0.57,,2013-07-01 14:22:00,
2013-07-01 10:34:00,64.0,59.0,29.97,WSW,247,0.0,0.0,85,0.00,,,0.57,,2013-07-01 14:34:00,
2013-07-01 10:43:00,65.0,60.0,29.98,NE,45,0.0,0.0,85,0.00,,,0.57,,2013-07-01 14:43:00,
2013-07-01 10:52:00,65.0,60.0,29.98,SE,135,0.0,0.0,84,0.00,,,0.57,,2013-07-01 14:52:00,
2013-07-01 11:11:00,66.0,61.0,29.97,WSW,247,0.0,0.0,84,0.00,,,0.57,,2013-07-01 15:11:00,
2013-07-01 11:23:00,66.0,61.0,29.97,SSE,157,0.0,0.0,84,0.00,,,0.57,,2013-07-01 15:23:00,
2013-07-01 11:34:00,66.0,61.0,29.97,WSW,247,0.0,0.0,83,0.00,,,0.57,,2013-07-01 15:34:00,
2013-07-01 11:43:00,66.0,61.0,29.97,East,90,0.0,0.0,83,0.00,,,0.57,,2013-07-01 15:43:00,
2013-07-01 11:52:00,66.0,61.0,29.97,North,0,0.0,0.0,83,0.00,,,0.57,,2013-07-01 15:52:00,
2013-07-01 12:11:00,66.0,60.0,29.98,East,90,0.0,0.0,82,0.00,,,0.57,,2013-07-01 16:11:00,
2013-07-01 12:22:00,65.0,59.0,29.97,East,90,0.0,1.0,82,0.00,,,0.57,,2013-07-01 16:22:00,
2013-07-01 12:33:00,65.0,59.0,29.98,ENE,67,0.0,0.0,82,0.00,,,0.57,,2013-07-01 16:33:00,
2013-07-01 12:44:00,65.0,59.0,29.98,East,90,0.0,0.0,81,0.00,,,0.57,,2013-07-01 16:44:00,
2013-07-01 12:53:00,65.0,59.0,29.98,East,90,0.0,0.0,81,0.00,,,0.57,,2013-07-01 16:53:00,
2013-07-01 13:12:00,64.0,58.0,29.99,ESE,112,0.0,0.0,80,0.00,,,0.53,,2013-07-01 17:12:00,
2013-07-01 15:02:00,65.0,58.0,29.97,East,90,0.0,0.0,78,0.00,,,0.00,,2013-07-01 19:02:00,
2013-07-01 15:11:00,65.0,57.0,29.96,SE,135,1.0,4.0,76,0.00,,,0.00,,2013-07-01 19:11:00,
2013-07-01 15:22:00,66.0,58.0,29.96,ENE,67,0.0,1.0,76,0.00,,,0.00,,2013-07-01 19:22:00,
2013-07-01 15:33:00,66.0,58.0,29.97,NE,45,1.0,4.0,75,0.00,,,0.00,,2013-07-01 19:33:00,
2013-07-01 15:44:00,66.0,58.0,29.97,NE,45,1.0,3.0,75,0.00,,,0.00,,2013-07-01 19:44:00,
2013-07-01 15:52:00,66.0,58.0,29.98,NE,45,0.0,0.0,75,0.00,,,0.00,,2013-07-01 19:52:00,
2013-07-01 16:11:00,66.0,58.0,29.99,East,90,0.0,3.0,75,0.00,,,0.00,,2013-07-01 20:11:00,
2013-07-01 16:43:00,66.0,59.0,29.99,SW,225,0.0,0.0,77,0.00,,,0.00,,2013-07-01 20:43:00,
2013-07-01 16:52:00,67.0,60.0,30.00,West,270,3.0,3.0,78,0.00,,,0.00,,2013-07-01 20:52:00,
2013-07-01 17:11:00,68.0,61.0,29.99,ENE,67,0.0,0.0,78,0.00,,,0.00,,2013-07-01 21:11:00,
2013-07-01 17:24:00,69.0,62.0,29.99,ENE,67,0.0,0.0,78,0.00,,,0.00,,2013-07-01 21:24:00,
2013-07-01 17:34:00,68.0,61.0,30.00,ENE,67,0.0,0.0,78,0.00,,,0.00,,2013-07-01 21:34:00,
2013-07-01 17:43:00,68.0,61.0,30.00,ENE,67,2.0,2.0,78,0.00,,,0.00,,2013-07-01 21:43:00,
2013-07-01 17:53:00,68.0,61.0,30.00,ENE,67,0.0,2.0,78,0.00,,,0.00,,2013-07-01 21:53:00,
2013-07-01 18:01:00,68.0,61.0,30.01,North,0,0.0,0.0,79,0.00,,,0.00,,2013-07-01 22:01:00,
2013-07-01 18:24:00,67.0,61.0,30.01,NE,45,0.0,2.0,80,0.00,,,0.00,,2013-07-01 22:24:00,
2013-07-01 18:43:00,67.0,61.0,29.99,ENE,67,0.0,0.0,80,0.00,,,0.00,,2013-07-01 22:43:00,
2013-07-01 18:53:00,67.0,61.0,30.00,ENE,67,0.0,0.0,80,0.00,,,0.00,,2013-07-01 22:53:00,
2013-07-01 19:01:00,67.0,61.0,30.00,North,-999,-999.0,-999.0,80,0.00,,,0.00,,2013-07-01 23:01:00,
2013-07-01 19:11:00,67.0,61.0,30.00,North,-999,-999.0,-999.0,80,0.00,,,0.00,,2013-07-01 23:11:00,
2013-07-01 19:22:00,67.0,61.0,30.00,North,-999,-999.0,-999.0,80,0.00,,,0.00,,2013-07-01 23:22:00,
2013-07-01 19:33:00,67.0,61.0,30.00,North,-999,-999.0,-999.0,80,0.00,,,0.00,,2013-07-01 23:33:00,
2013-07-01 19:53:00,67.0,62.0,30.00,WNW,292,0.0,0.0,83,0.00,,,0.00,,2013-07-01 23:53:00,
2013-07-01 20:01:00,66.0,61.0,30.00,WNW,292,0.0,0.0,83,0.00,,,0.00,,2013-07-02 00:01:00,
2013-07-01 20:12:00,67.0,62.0,30.01,WNW,292,0.0,0.0,83,0.00,,,0.00,,2013-07-02 00:12:00,
2013-07-01 20:22:00,66.0,60.0,30.01,NNE,22,0.0,0.0,82,0.00,,,0.00,,2013-07-02 00:22:00,
2013-07-01 20:34:00,66.0,60.0,30.01,NNE,22,0.0,0.0,82,0.00,,,0.00,,2013-07-02 00:34:00,
2013-07-01 20:43:00,66.0,60.0,30.02,NNE,22,0.0,0.0,82,0.00,,,0.00,,2013-07-02 00:43:00,
2013-07-01 20:53:00,66.0,60.0,30.02,NNE,22,0.0,0.0,82,0.00,,,0.00,,2013-07-02 00:53:00,
2013-07-01 21:01:00,66.0,60.0,30.02,NNE,22,0.0,0.0,82,0.00,,,0.00,,2013-07-02 01:01:00,
2013-07-01 21:11:00,66.0,60.0,30.02,NNE,22,0.0,0.0,82,0.00,,,0.00,,2013-07-02 01:11:00,
2013-07-01 21:22:00,66.0,60.0,30.01,North,0,0.0,0.0,82,0.00,,,0.00,,2013-07-02 01:22:00,
2013-07-01 21:33:00,66.0,60.0,30.00,North,0,0.0,0.0,82,0.00,,,0.00,,2013-07-02 01:33:00,
2013-07-01 21:43:00,66.0,60.0,30.00,NNE,22,0.0,0.0,82,0.00,,,0.00,,2013-07-02 01:43:00,
2013-07-01 21:53:00,66.0,60.0,30.01,NE,45,0.0,0.0,82,0.00,,,0.00,,2013-07-02 01:53:00,
2013-07-01 22:12:00,65.0,59.0,30.02,ESE,112,0.0,0.0,81,0.00,,,0.00,,2013-07-02 02:12:00,
2013-07-01 22:22:00,65.0,59.0,30.02,ESE,112,0.0,0.0,81,0.00,,,0.00,,2013-07-02 02:22:00,
2013-07-01 22:34:00,65.0,59.0,30.03,ESE,112,0.0,0.0,81,0.00,,,0.00,,2013-07-02 02:34:00,
2013-07-01 22:43:00,65.0,59.0,30.03,ESE,112,0.0,0.0,81,0.00,,,0.00,,2013-07-02 02:43:00,
2013-07-01 22:53:00,65.0,59.0,30.03,ESE,112,0.0,0.0,81,0.00,,,0.00,,2013-07-02 02:53:00,
2013-07-01 23:01:00,65.0,59.0,30.03,ESE,112,0.0,0.0,81,0.00,,,0.00,,2013-07-02 03:01:00,